createdAt,value
2017-02-17T00:00:59.105Z,964.72
2017-02-17T00:03:06.797Z,964.68
2017-02-17T00:05:08.991Z,964.65
2017-02-17T00:07:11.458Z,964.6
2017-02-17T00:09:23.898Z,964.59
2017-02-17T00:11:31.320Z,964.59
2017-02-17T00:13:33.735Z,964.59
2017-02-17T00:15:36.071Z,964.48
2017-02-17T00:17:43.486Z,964.49
2017-02-17T00:19:45.916Z,964.49
2017-02-17T00:22:00.979Z,964.45
2017-02-17T00:23:48.309Z,964.43
2017-02-17T00:25:45.634Z,964.4
2017-02-17T00:27:52.933Z,964.37
2017-02-17T00:29:45.209Z,964.32
2017-02-17T00:31:37.898Z,964.37
2017-02-17T00:33:40.050Z,964.38
2017-02-17T00:35:42.685Z,964.38
2017-02-17T00:37:35.494Z,964.38
2017-02-17T00:39:42.646Z,964.41
2017-02-17T00:41:40.076Z,964.41
2017-02-17T00:43:42.290Z,964.4
2017-02-17T00:45:34.533Z,964.37
2017-02-17T00:47:31.761Z,964.37
2017-02-17T00:49:34.126Z,964.31
2017-02-17T00:51:36.406Z,964.32
2017-02-17T00:53:43.602Z,964.29
2017-02-17T00:55:51.049Z,964.26
2017-02-17T00:57:53.255Z,964.29
2017-02-17T01:00:00.460Z,964.2
2017-02-17T01:02:03.015Z,964.24
2017-02-17T01:04:05.264Z,964.23
2017-02-17T01:06:12.579Z,964.22
2017-02-17T01:08:09.798Z,964.22
2017-02-17T01:10:12.667Z,964.21
2017-02-17T01:12:10.397Z,964.19
2017-02-17T01:14:13.049Z,964.18
2017-02-17T01:16:10.310Z,964.15
2017-02-17T01:18:02.602Z,964.14
2017-02-17T01:20:04.857Z,964.1
2017-02-17T01:22:07.262Z,964.03
2017-02-17T01:24:09.551Z,964.03
2017-02-17T01:26:06.782Z,963.96
2017-02-17T01:27:59.133Z,963.99
2017-02-17T01:30:01.312Z,963.97
2017-02-17T01:31:58.463Z,963.92
2017-02-17T01:34:00.676Z,963.88
2017-02-17T01:35:58.130Z,963.88
2017-02-17T01:37:55.337Z,963.85
2017-02-17T01:39:57.562Z,963.79
2017-02-17T01:41:39.932Z,963.75
2017-02-17T01:43:37.388Z,963.76
2017-02-17T01:45:40.186Z,963.72
2017-02-17T01:47:47.764Z,963.7
2017-02-17T01:49:35.268Z,963.7
2017-02-17T01:51:47.550Z,963.65
2017-02-17T01:53:55.018Z,963.62
2017-02-17T01:55:47.424Z,963.65
2017-02-17T01:57:39.767Z,963.6
2017-02-17T01:59:42.024Z,963.55
2017-02-17T02:01:39.508Z,963.48
2017-02-17T02:03:41.936Z,963.49
2017-02-17T02:05:54.147Z,963.47
2017-02-17T02:08:06.493Z,963.41
2017-02-17T02:10:08.845Z,963.38
2017-02-17T02:12:21.163Z,963.43
2017-02-17T02:14:28.424Z,963.37
2017-02-17T02:16:20.899Z,963.38
2017-02-17T02:18:18.308Z,963.3
2017-02-17T02:20:21.028Z,963.3
2017-02-17T02:22:18.454Z,963.32
2017-02-17T02:24:10.780Z,963.39
2017-02-17T02:26:08.120Z,963.38
2017-02-17T02:28:00.324Z,963.35
2017-02-17T02:30:07.559Z,963.37
2017-02-17T02:32:04.882Z,963.34
2017-02-17T02:34:02.181Z,963.33
2017-02-17T02:36:04.501Z,963.33
2017-02-17T02:38:06.809Z,963.34
2017-02-17T02:40:19.114Z,963.34
2017-02-17T02:42:21.652Z,963.34
2017-02-17T02:44:23.994Z,963.34
2017-02-17T02:46:21.319Z,963.41
2017-02-17T02:48:18.712Z,963.41
2017-02-17T02:50:21.007Z,963.44
2017-02-17T02:52:13.514Z,963.41
2017-02-17T02:54:06.169Z,963.46
2017-02-17T02:56:03.877Z,963.44
2017-02-17T02:58:01.249Z,963.43
2017-02-17T02:59:58.559Z,963.45
2017-02-17T03:02:05.845Z,963.47
2017-02-17T03:04:03.255Z,963.48
2017-02-17T03:05:55.661Z,963.38
2017-02-17T03:07:52.859Z,963.29
2017-02-17T03:09:40.052Z,963.33
2017-02-17T03:11:37.360Z,963.32
2017-02-17T03:13:29.655Z,963.36
2017-02-17T03:15:36.825Z,963.36
2017-02-17T03:17:34.253Z,963.32
2017-02-17T03:19:26.488Z,963.36
2017-02-17T03:21:28.722Z,963.43
2017-02-17T03:23:26.113Z,963.45
2017-02-17T03:25:18.404Z,963.51
2017-02-17T03:27:15.832Z,963.43
2017-02-17T03:29:23.235Z,963.44
2017-02-17T03:31:10.853Z,963.38
2017-02-17T03:33:13.129Z,963.48
2017-02-17T03:35:15.374Z,963.5
2017-02-17T03:37:14.320Z,963.51
2017-02-17T03:39:11.643Z,963.46
2017-02-17T03:41:19.013Z,963.4
2017-02-17T03:43:21.374Z,963.55
2017-02-17T03:45:28.699Z,963.54
2017-02-17T03:47:31.082Z,963.56
2017-02-17T03:49:33.404Z,963.49
2017-02-17T03:51:30.803Z,963.48
2017-02-17T03:53:32.968Z,963.51
2017-02-17T03:55:35.376Z,963.52
2017-02-17T03:57:47.593Z,963.58
2017-02-17T03:59:50.007Z,963.58
2017-02-17T04:01:52.461Z,963.66
2017-02-17T04:03:51.991Z,963.65
2017-02-17T04:05:59.334Z,963.67
2017-02-17T04:07:56.585Z,963.69
2017-02-17T04:09:53.809Z,963.66
2017-02-17T04:11:46.030Z,963.73
2017-02-17T04:13:43.564Z,963.74
2017-02-17T04:15:45.968Z,963.7
2017-02-17T04:17:53.104Z,963.75
2017-02-17T04:19:45.516Z,963.67
2017-02-17T04:21:47.911Z,963.7
2017-02-17T04:23:50.296Z,963.62
2017-02-17T04:25:47.468Z,963.7
2017-02-17T04:27:49.703Z,963.72
2017-02-17T04:29:46.970Z,963.69
2017-02-17T04:31:44.294Z,963.69
2017-02-17T04:33:46.567Z,963.75
2017-02-17T04:35:33.994Z,963.78
2017-02-17T04:37:26.392Z,963.76
2017-02-17T04:39:24.027Z,963.72
2017-02-17T04:41:26.344Z,963.63
2017-02-17T04:43:18.817Z,963.67
2017-02-17T04:45:11.452Z,963.6
2017-02-17T04:47:23.551Z,963.53
2017-02-17T04:49:15.929Z,963.49
2017-02-17T04:51:23.141Z,963.5
2017-02-17T04:53:15.414Z,963.45
2017-02-17T04:55:12.793Z,963.44
2017-02-17T04:57:20.075Z,963.47
2017-02-17T04:59:17.301Z,963.5
2017-02-17T05:01:19.490Z,963.43
2017-02-17T05:03:21.623Z,963.43
2017-02-17T05:05:23.835Z,963.41
2017-02-17T05:07:31.237Z,963.35
2017-02-17T05:09:23.583Z,963.35
2017-02-17T05:11:30.973Z,963.21
2017-02-17T05:13:33.162Z,963.23
2017-02-17T05:15:35.383Z,963.28
2017-02-17T05:17:32.924Z,963.24
2017-02-17T05:19:30.686Z,963.27
2017-02-17T05:21:38.019Z,963.29
2017-02-17T05:23:30.308Z,963.25
2017-02-17T05:25:27.712Z,963.27
2017-02-17T05:27:29.899Z,963.22
2017-02-17T05:29:17.166Z,963.22
2017-02-17T05:31:14.607Z,963.24
2017-02-17T05:33:26.742Z,963.24
2017-02-17T05:35:38.958Z,963.25
2017-02-17T05:37:31.350Z,963.26
2017-02-17T05:39:33.698Z,963.22
2017-02-17T05:41:41.052Z,963.17
2017-02-17T05:43:38.323Z,963.18
2017-02-17T05:45:35.716Z,963.23
2017-02-17T05:47:32.993Z,963.24
2017-02-17T05:49:30.339Z,963.21
2017-02-17T05:51:27.701Z,963.21
2017-02-17T05:53:35.002Z,963.22
2017-02-17T05:55:47.356Z,963.25
2017-02-17T05:57:40.165Z,963.27
2017-02-17T05:59:47.498Z,963.28
2017-02-17T06:01:39.805Z,963.24
2017-02-17T06:03:42.294Z,963.22
2017-02-17T06:05:44.804Z,963.21
2017-02-17T06:10:07.745Z,963.28
2017-02-17T06:12:10.162Z,963.28
2017-02-17T06:14:07.422Z,963.28
2017-02-17T06:15:59.737Z,963.31
2017-02-17T06:18:06.960Z,963.3
2017-02-17T06:19:54.350Z,963.31
2017-02-17T06:22:01.676Z,963.31
2017-02-17T06:23:59.150Z,963.32
2017-02-17T06:25:51.442Z,963.34
2017-02-17T06:27:53.643Z,963.32
2017-02-17T06:29:45.997Z,963.37
2017-02-17T06:31:43.515Z,963.32
2017-02-17T06:33:36.292Z,963.28
2017-02-17T06:35:38.508Z,963.3
2017-02-17T06:37:50.659Z,963.35
2017-02-17T06:39:42.940Z,963.37
2017-02-17T06:41:40.196Z,963.42
2017-02-17T06:43:40.671Z,963.45
2017-02-17T06:45:48.069Z,963.44
2017-02-17T06:48:00.398Z,963.31
2017-02-17T06:50:02.693Z,963.36
2017-02-17T06:52:00.089Z,963.34
2017-02-17T06:54:02.328Z,963.33
2017-02-17T06:55:59.716Z,963.38
2017-02-17T06:57:47.046Z,963.47
2017-02-17T06:59:49.431Z,963.41
2017-02-17T07:01:56.892Z,963.39
2017-02-17T07:03:49.253Z,963.35
2017-02-17T07:06:01.857Z,963.39
2017-02-17T07:08:04.605Z,963.45
2017-02-17T07:10:07.022Z,963.45
2017-02-17T07:11:59.466Z,963.44
2017-02-17T07:13:56.774Z,963.45
2017-02-17T07:16:04.001Z,963.43
2017-02-17T07:18:06.177Z,963.51
2017-02-17T07:19:58.610Z,963.52
2017-02-17T07:22:05.766Z,963.49
2017-02-17T07:24:07.997Z,963.5
2017-02-17T07:26:10.255Z,963.54
2017-02-17T07:28:02.658Z,963.55
2017-02-17T07:29:50.197Z,963.54
2017-02-17T07:31:58.970Z,963.58
2017-02-17T07:34:01.319Z,963.58
2017-02-17T07:36:03.491Z,963.61
2017-02-17T07:37:50.804Z,963.62
2017-02-17T07:39:38.269Z,963.59
2017-02-17T07:41:40.725Z,963.6
2017-02-17T07:43:43.024Z,963.57
2017-02-17T07:45:40.337Z,963.54
2017-02-17T07:47:42.860Z,963.58
2017-02-17T07:49:35.181Z,963.53
2017-02-17T07:51:37.417Z,963.56
2017-02-17T07:53:39.624Z,963.6
2017-02-17T07:55:32.111Z,963.62
2017-02-17T07:57:29.542Z,963.64
2017-02-17T07:59:21.964Z,963.67
2017-02-17T08:01:19.390Z,963.63
2017-02-17T08:03:26.624Z,963.6
2017-02-17T08:05:23.919Z,963.65
2017-02-17T08:07:26.141Z,963.71
2017-02-17T08:11:24.060Z,963.76
2017-02-17T08:13:16.375Z,963.71
2017-02-17T08:15:13.845Z,963.77
2017-02-17T08:17:29.873Z,963.66
2017-02-17T08:19:28.850Z,963.71
2017-02-17T08:21:26.524Z,963.79
2017-02-17T08:23:38.955Z,963.76
2017-02-17T08:25:36.264Z,963.76
2017-02-17T08:27:33.495Z,963.76
2017-02-17T08:29:31.011Z,963.78
2017-02-17T08:31:23.614Z,963.8
2017-02-17T08:33:25.969Z,963.79
2017-02-17T08:35:23.186Z,963.78
2017-02-17T08:37:20.494Z,963.77
2017-02-17T08:39:17.677Z,963.78
2017-02-17T08:41:20.083Z,963.8
2017-02-17T08:43:23.694Z,963.8
2017-02-17T08:45:25.908Z,963.83
2017-02-17T08:47:28.318Z,963.85
2017-02-17T08:49:30.539Z,963.82
2017-02-17T08:51:27.811Z,963.81
2017-02-17T08:53:25.244Z,963.75
2017-02-17T08:55:17.639Z,963.71
2017-02-17T08:57:15.209Z,963.67
2017-02-17T08:59:17.584Z,963.7
2017-02-17T09:01:14.913Z,963.69
2017-02-17T09:03:17.098Z,963.65
2017-02-17T09:05:19.303Z,963.66
2017-02-17T09:07:21.526Z,963.68
2017-02-17T09:09:13.858Z,963.65
2017-02-17T09:11:11.238Z,963.67
2017-02-17T09:13:08.477Z,963.69
2017-02-17T09:15:15.651Z,963.8
2017-02-17T09:17:02.925Z,963.8
2017-02-17T09:18:53.506Z,963.85
2017-02-17T09:21:10.214Z,963.86
2017-02-17T09:23:07.604Z,963.94
2017-02-17T09:25:04.853Z,963.97
2017-02-17T09:27:07.088Z,963.91
2017-02-17T09:29:04.364Z,963.94
2017-02-17T09:31:06.667Z,963.94
2017-02-17T09:33:08.887Z,963.96
2017-02-17T09:35:06.677Z,964.03
2017-02-17T09:37:03.914Z,964.06
2017-02-17T09:39:11.473Z,964.09
2017-02-17T09:41:13.753Z,964.07
2017-02-17T09:43:26.258Z,964.04
2017-02-17T09:45:25.693Z,963.98
2017-02-17T09:47:13.061Z,963.93
2017-02-17T09:49:00.343Z,963.88
2017-02-17T09:50:57.670Z,963.9
2017-02-17T09:53:04.961Z,963.91
2017-02-17T09:55:02.230Z,963.95
2017-02-17T09:57:04.495Z,963.93
2017-02-17T09:59:01.905Z,963.95
2017-02-17T10:00:59.203Z,963.95
2017-02-17T10:02:46.495Z,963.95
2017-02-17T10:04:38.733Z,963.95
2017-02-17T10:06:51.064Z,964
2017-02-17T10:08:53.653Z,963.95
2017-02-17T10:10:51.285Z,963.87
2017-02-17T10:12:53.837Z,963.95
2017-02-17T10:14:51.159Z,963.95
2017-02-17T10:16:43.394Z,963.95
2017-02-17T10:18:45.629Z,963.99
2017-02-17T10:20:43.043Z,964.03
2017-02-17T10:22:45.387Z,964.06
2017-02-17T10:24:52.707Z,964.07
2017-02-17T10:26:55.033Z,964.1
2017-02-17T10:28:52.303Z,964.13
2017-02-17T10:30:54.564Z,964.07
2017-02-17T10:32:46.999Z,964.1
2017-02-17T10:35:00.703Z,964.08
2017-02-17T10:37:07.208Z,964.15
2017-02-17T10:39:04.420Z,964.13
2017-02-17T10:40:57.803Z,964.09
2017-02-17T10:43:00.052Z,964.11
2017-02-17T10:44:57.445Z,964.04
2017-02-17T10:46:59.667Z,963.99
2017-02-17T10:49:03.007Z,964
2017-02-17T10:51:05.212Z,964.02
2017-02-17T10:53:12.569Z,963.96
2017-02-17T10:55:09.816Z,964.02
2017-02-17T10:57:12.124Z,964
2017-02-17T10:59:14.527Z,963.99
2017-02-17T11:01:16.737Z,964.01
2017-02-17T11:03:23.890Z,963.99
2017-02-17T11:05:31.223Z,963.98
2017-02-17T11:07:23.595Z,963.97
2017-02-17T11:09:20.824Z,963.92
2017-02-17T11:11:13.125Z,964.01
2017-02-17T11:13:00.457Z,963.99
2017-02-17T11:15:02.811Z,963.93
2017-02-17T11:17:05.094Z,963.94
2017-02-17T11:19:12.397Z,963.99
2017-02-17T11:21:14.647Z,963.94
2017-02-17T11:23:17.030Z,963.89
2017-02-17T11:25:10.271Z,963.91
2017-02-17T11:27:11.024Z,963.87
2017-02-17T11:29:08.273Z,963.9
2017-02-17T11:31:15.416Z,963.91
2017-02-17T11:33:17.676Z,963.93
2017-02-17T11:35:15.028Z,963.94
2017-02-17T11:37:12.174Z,963.98
2017-02-17T11:39:14.542Z,963.94
2017-02-17T11:41:16.876Z,964
2017-02-17T11:43:09.206Z,963.98
2017-02-17T11:45:11.552Z,963.95
2017-02-17T11:47:08.746Z,963.98
2017-02-17T11:49:05.955Z,963.99
2017-02-17T11:50:53.281Z,963.96
2017-02-17T11:52:50.497Z,963.99
2017-02-17T11:54:47.734Z,964.06
2017-02-17T11:56:29.995Z,964.08
2017-02-17T11:58:27.190Z,964.05
2017-02-17T12:00:24.782Z,964.02
2017-02-17T12:02:22.317Z,964.02
2017-02-17T12:04:29.681Z,963.99
2017-02-17T12:06:42.057Z,964.02
2017-02-17T12:08:39.478Z,964.02
2017-02-17T12:10:31.870Z,964.01
2017-02-17T12:12:29.183Z,963.97
2017-02-17T12:14:11.641Z,964.05
2017-02-17T12:16:09.024Z,964.02
2017-02-17T12:18:06.277Z,964
2017-02-17T12:20:03.547Z,964.01
2017-02-17T12:21:55.777Z,964.04
2017-02-17T12:23:58.156Z,964.08
2017-02-17T12:26:10.459Z,964.12
2017-02-17T12:28:07.781Z,964.1
2017-02-17T12:30:05.081Z,964.08
2017-02-17T12:31:57.468Z,964.02
2017-02-17T12:33:49.781Z,963.98
2017-02-17T12:35:47.493Z,963.92
2017-02-17T12:37:39.953Z,963.91
2017-02-17T12:39:32.558Z,963.97
2017-02-17T12:41:30.106Z,963.96
2017-02-17T12:43:27.347Z,963.92
2017-02-17T12:45:19.754Z,963.9
2017-02-17T12:47:22.209Z,963.91
2017-02-17T12:49:29.631Z,963.92
2017-02-17T12:51:32.076Z,963.88
2017-02-17T12:53:29.406Z,963.84
2017-02-17T12:55:21.638Z,963.85
2017-02-17T12:57:14.089Z,963.88
2017-02-17T12:59:16.330Z,963.9
2017-02-17T13:01:18.597Z,963.9
2017-02-17T13:03:05.895Z,963.91
2017-02-17T13:05:03.255Z,963.91
2017-02-17T13:07:10.450Z,963.88
2017-02-17T13:09:22.663Z,963.82
2017-02-17T13:11:20.163Z,963.86
2017-02-17T13:13:12.497Z,963.87
2017-02-17T13:15:09.832Z,963.88
2017-02-17T13:17:02.375Z,963.89
2017-02-17T13:19:09.647Z,963.95
2017-02-17T13:21:18.110Z,963.97
2017-02-17T13:23:25.429Z,963.94
2017-02-17T13:25:17.713Z,963.94
2017-02-17T13:27:10.249Z,963.9
2017-02-17T13:29:12.569Z,963.91
2017-02-17T13:31:09.896Z,963.88
2017-02-17T13:33:07.530Z,963.92
2017-02-17T13:35:09.960Z,963.87
2017-02-17T13:37:02.519Z,963.85
2017-02-17T13:39:09.808Z,963.85
2017-02-17T13:41:07.285Z,963.81
2017-02-17T13:43:14.585Z,963.8
2017-02-17T13:45:16.976Z,963.81
2017-02-17T13:47:09.412Z,963.84
2017-02-17T13:49:06.893Z,963.82
2017-02-17T13:51:14.570Z,963.86
2017-02-17T13:53:21.894Z,963.85
2017-02-17T13:55:24.294Z,963.87
2017-02-17T13:57:26.790Z,963.85
2017-02-17T13:59:34.154Z,963.82
2017-02-17T14:01:32.166Z,963.77
2017-02-17T14:03:39.836Z,963.78
2017-02-17T14:05:42.582Z,963.78
2017-02-17T14:07:30.164Z,963.85
2017-02-17T14:09:32.721Z,963.85
2017-02-17T14:11:36.669Z,963.88
2017-02-17T14:13:44.008Z,963.98
2017-02-17T14:15:41.652Z,963.99
2017-02-17T14:17:44.171Z,963.99
2017-02-17T14:19:41.723Z,963.99
2017-02-17T14:21:44.191Z,964.05
2017-02-17T14:23:46.668Z,964.01
2017-02-17T14:25:44.130Z,963.99
2017-02-17T14:27:56.643Z,963.89
2017-02-17T14:29:58.931Z,963.86
2017-02-17T14:32:11.128Z,963.85
2017-02-17T14:34:18.352Z,963.89
2017-02-17T14:38:26.700Z,963.88
2017-02-17T14:40:34.134Z,963.75
2017-02-17T14:42:41.573Z,963.73
2017-02-17T14:44:34.018Z,963.75
2017-02-17T14:46:26.591Z,963.76
2017-02-17T14:48:19.105Z,963.67
2017-02-17T14:50:28.024Z,963.65
2017-02-17T14:52:35.312Z,963.62
2017-02-17T14:54:32.826Z,963.53
2017-02-17T14:56:25.199Z,963.54
2017-02-17T14:58:22.555Z,963.62
2017-02-17T15:00:34.892Z,963.56
2017-02-17T15:02:37.685Z,963.57
2017-02-17T15:04:25.211Z,963.58
2017-02-17T15:06:27.565Z,963.58
2017-02-17T15:08:19.938Z,963.6
2017-02-17T15:10:17.230Z,963.64
2017-02-17T15:12:19.453Z,963.63
2017-02-17T15:14:11.812Z,963.56
2017-02-17T15:16:19.076Z,963.58
2017-02-17T15:18:17.959Z,963.7
2017-02-17T15:20:20.361Z,963.67
2017-02-17T15:22:33.160Z,963.64
2017-02-17T15:24:25.536Z,963.67
2017-02-17T15:26:32.847Z,963.66
2017-02-17T15:28:30.301Z,963.67
2017-02-17T15:30:27.709Z,963.67
2017-02-17T15:32:30.116Z,963.67
2017-02-17T15:34:27.855Z,963.71
2017-02-17T15:36:30.251Z,963.7
2017-02-17T15:38:32.603Z,963.66
2017-02-17T15:40:39.767Z,963.6
2017-02-17T15:42:32.048Z,963.56
2017-02-17T15:44:34.569Z,963.53
2017-02-17T15:46:26.921Z,963.54
2017-02-17T15:48:09.266Z,963.52
2017-02-17T15:50:06.586Z,963.57
2017-02-17T15:52:03.979Z,963.53
2017-02-17T15:54:11.232Z,963.52
2017-02-17T15:56:18.664Z,963.56
2017-02-17T15:58:15.991Z,963.58
2017-02-17T16:00:18.267Z,963.58
2017-02-17T16:02:15.615Z,963.54
2017-02-17T16:04:18.030Z,963.5
2017-02-17T16:06:20.290Z,963.54
2017-02-17T16:08:22.810Z,963.55
2017-02-17T16:10:25.287Z,963.56
2017-02-17T16:12:07.805Z,963.55
2017-02-17T16:14:10.232Z,963.55
2017-02-17T16:16:12.556Z,963.59
2017-02-17T16:18:19.884Z,963.62
2017-02-17T16:20:29.035Z,963.64
2017-02-17T16:22:31.671Z,963.63
2017-02-17T16:24:30.761Z,963.62
2017-02-17T16:26:29.398Z,963.69
2017-02-17T16:28:39.068Z,963.64
2017-02-17T16:30:55.873Z,963.67
2017-02-17T16:32:58.432Z,963.69
2017-02-17T16:35:02.010Z,963.66
2017-02-17T16:37:05.241Z,963.63
2017-02-17T16:39:13.440Z,963.59
2017-02-17T16:41:16.403Z,963.63
2017-02-17T16:43:24.242Z,963.61
2017-02-17T16:45:22.362Z,963.7
2017-02-17T16:47:20.369Z,963.68
2017-02-17T16:49:28.738Z,963.67
2017-02-17T16:51:21.189Z,963.65
2017-02-17T16:53:18.719Z,963.66
2017-02-17T16:55:21.261Z,963.74
2017-02-17T16:57:13.643Z,963.7
2017-02-17T16:59:05.949Z,963.72
2017-02-17T17:01:13.404Z,963.73
2017-02-17T17:03:20.773Z,963.71
2017-02-17T17:05:18.290Z,963.72
2017-02-17T17:07:20.814Z,963.7
2017-02-17T17:09:23.283Z,963.7
2017-02-17T17:11:30.509Z,963.73
2017-02-17T17:13:27.909Z,963.71
2017-02-17T17:15:10.450Z,963.75
2017-02-17T17:17:22.691Z,963.75
2017-02-17T17:19:35.367Z,963.77
2017-02-17T17:21:38.229Z,963.81
2017-02-17T17:23:40.520Z,963.76
2017-02-17T17:25:32.841Z,963.79
2017-02-17T17:27:35.251Z,963.84
2017-02-17T17:29:32.497Z,963.84
2017-02-17T17:31:34.924Z,963.88
2017-02-17T17:33:22.468Z,963.88
2017-02-17T17:35:24.879Z,963.92
2017-02-17T17:37:17.382Z,963.94
2017-02-17T17:39:14.877Z,963.91
2017-02-17T17:41:22.182Z,963.88
2017-02-17T17:43:29.604Z,963.94
2017-02-17T17:45:37.070Z,963.94
2017-02-17T17:47:39.486Z,963.97
2017-02-17T17:49:41.800Z,963.95
2017-02-17T17:51:43.966Z,963.99
2017-02-17T17:53:46.354Z,963.98
2017-02-17T17:55:44.022Z,963.97
2017-02-17T17:57:41.486Z,963.95
2017-02-17T17:59:38.807Z,963.97
2017-02-17T18:01:21.148Z,963.94
2017-02-17T18:03:23.483Z,963.96
2017-02-17T18:05:25.936Z,963.94
2017-02-17T18:07:28.585Z,963.95
2017-02-17T18:09:25.907Z,963.95
2017-02-17T18:11:23.241Z,963.96
2017-02-17T18:13:20.789Z,963.95
2017-02-17T18:15:18.105Z,964
2017-02-17T18:17:30.461Z,964
2017-02-17T18:19:22.929Z,964.06
2017-02-17T18:21:30.405Z,964.12
2017-02-17T18:23:37.942Z,964.08
2017-02-17T18:25:35.227Z,964.12
2017-02-17T18:27:32.753Z,964.12
2017-02-17T18:29:35.097Z,964.14
2017-02-17T18:31:37.641Z,964.13
2017-02-17T18:33:39.977Z,964.14
2017-02-17T18:35:47.348Z,964.14
2017-02-17T18:37:49.782Z,964.15
2017-02-17T18:39:57.157Z,964.07
2017-02-17T18:41:59.500Z,964.05
2017-02-17T18:44:06.863Z,964.08
2017-02-17T18:46:17.448Z,964.05
2017-02-17T18:48:19.851Z,964.06
2017-02-17T18:50:12.201Z,964.06
2017-02-17T18:52:09.457Z,964.06
2017-02-17T18:54:02.058Z,964.1
2017-02-17T18:56:10.205Z,964.08
2017-02-17T18:58:17.471Z,964.08
2017-02-17T19:00:20.241Z,964.06
2017-02-17T19:02:18.214Z,964.06
2017-02-17T19:04:08.992Z,964.06
2017-02-17T19:06:06.473Z,964.04
2017-02-17T19:08:09.201Z,964.07
2017-02-17T19:10:22.159Z,964.12
2017-02-17T19:12:29.600Z,964.17
2017-02-17T19:14:32.050Z,964.14
2017-02-17T19:16:20.955Z,964.12
2017-02-17T19:18:23.382Z,964.14
2017-02-17T19:20:25.753Z,964.22
2017-02-17T19:22:28.124Z,964.27
2017-02-17T19:24:20.662Z,964.28
2017-02-17T19:26:18.130Z,964.32
2017-02-17T19:28:20.764Z,964.27
2017-02-17T19:30:13.172Z,964.29
2017-02-17T19:32:05.586Z,964.23
2017-02-17T19:34:12.845Z,964.16
2017-02-17T19:36:15.684Z,964.14
2017-02-17T19:38:18.348Z,964.22
2017-02-17T19:40:16.173Z,964.27
2017-02-17T19:42:13.784Z,964.35
2017-02-17T19:44:17.270Z,964.39
2017-02-17T19:46:19.788Z,964.43
2017-02-17T19:48:12.136Z,964.48
2017-02-17T19:50:15.430Z,964.44
2017-02-17T19:52:18.069Z,964.43
2017-02-17T19:54:25.853Z,964.41
2017-02-17T19:56:29.958Z,964.39
2017-02-17T19:58:37.508Z,964.33
2017-02-17T20:00:35.101Z,964.38
2017-02-17T20:02:32.374Z,964.42
2017-02-17T20:04:29.838Z,964.46
2017-02-17T20:08:49.832Z,964.46
2017-02-17T20:10:52.203Z,964.5
2017-02-17T20:13:04.944Z,964.5
2017-02-17T20:15:28.511Z,964.48
2017-02-17T20:17:21.490Z,964.38
2017-02-17T20:19:34.890Z,964.45
2017-02-17T20:21:41.644Z,964.43
2017-02-17T20:23:34.162Z,964.45
2017-02-17T20:25:42.297Z,964.48
2017-02-17T20:27:33.906Z,964.55
2017-02-17T20:29:42.928Z,964.57
2017-02-17T20:32:00.202Z,964.63
2017-02-17T20:33:57.658Z,964.61
2017-02-17T20:36:00.057Z,964.63
2017-02-17T20:38:07.416Z,964.65
2017-02-17T20:40:07.973Z,964.61
2017-02-17T20:42:10.392Z,964.69
2017-02-17T20:44:17.887Z,964.64
2017-02-17T20:46:20.570Z,964.7
2017-02-17T20:48:03.150Z,964.66
2017-02-17T20:49:55.641Z,964.68
2017-02-17T20:52:02.995Z,964.66
2017-02-17T20:54:05.347Z,964.72
2017-02-17T20:55:57.788Z,964.71
2017-02-17T20:58:00.205Z,964.78
2017-02-17T21:00:02.664Z,964.76
2017-02-17T21:01:55.000Z,964.8
2017-02-17T21:04:02.288Z,964.79
2017-02-17T21:06:04.804Z,964.78
2017-02-17T21:08:03.112Z,964.78
2017-02-17T21:10:00.438Z,964.86
2017-02-17T21:12:02.677Z,964.85
2017-02-17T21:13:59.971Z,964.85
2017-02-17T21:15:57.374Z,964.78
2017-02-17T21:18:09.594Z,964.81
2017-02-17T21:20:07.253Z,964.79
2017-02-17T21:22:05.376Z,964.79
2017-02-17T21:24:02.962Z,964.77
2017-02-17T21:26:05.297Z,964.78
2017-02-17T21:28:07.641Z,964.8
2017-02-17T21:30:10.435Z,964.77
2017-02-17T21:32:15.782Z,964.77
2017-02-17T21:34:13.221Z,964.76
2017-02-17T21:36:06.231Z,964.77
2017-02-17T21:38:08.494Z,964.74
2017-02-17T21:40:05.792Z,964.74
2017-02-17T21:42:08.271Z,964.72
2017-02-17T21:44:10.614Z,964.75
2017-02-17T21:46:07.925Z,964.78
2017-02-17T21:48:00.161Z,964.78
2017-02-17T21:49:57.647Z,964.73
2017-02-17T21:52:05.068Z,964.76
2017-02-17T21:54:12.526Z,964.74
2017-02-17T21:56:04.995Z,964.76
2017-02-17T21:58:07.317Z,964.7
2017-02-17T22:00:14.593Z,964.68
2017-02-17T22:02:07.021Z,964.66
2017-02-17T22:04:09.552Z,964.59
2017-02-17T22:06:12.086Z,964.56
2017-02-17T22:08:24.533Z,964.57
2017-02-17T22:10:11.919Z,964.53
2017-02-17T22:12:14.376Z,964.54
2017-02-17T22:14:12.840Z,964.58
2017-02-17T22:16:20.306Z,964.56
2017-02-17T22:18:27.868Z,964.57
2017-02-17T22:20:30.207Z,964.51
2017-02-17T22:22:27.585Z,964.47
2017-02-17T22:24:30.106Z,964.48
2017-02-17T22:26:27.400Z,964.43
2017-02-17T22:28:29.705Z,964.44
2017-02-17T22:30:12.154Z,964.41
2017-02-17T22:32:04.429Z,964.47
2017-02-17T22:34:01.820Z,964.43
2017-02-17T22:36:04.083Z,964.42
2017-02-17T22:38:11.397Z,964.42
2017-02-17T22:40:03.795Z,964.39
2017-02-17T22:41:56.071Z,964.38
2017-02-17T22:44:08.222Z,964.4
2017-02-17T22:46:00.710Z,964.38
2017-02-17T22:48:03.408Z,964.47
2017-02-17T22:50:10.765Z,964.45
2017-02-17T22:52:22.955Z,964.46
2017-02-17T22:54:35.654Z,964.43
2017-02-17T22:56:43.062Z,964.5
2017-02-17T22:58:40.315Z,964.45
2017-02-17T23:00:42.551Z,964.45
2017-02-17T23:02:39.881Z,964.47
2017-02-17T23:04:47.316Z,964.46
2017-02-17T23:06:54.597Z,964.47
2017-02-17T23:08:52.153Z,964.49
2017-02-17T23:10:44.457Z,964.53
2017-02-17T23:12:46.820Z,964.47
2017-02-17T23:14:44.278Z,964.53
2017-02-17T23:16:36.677Z,964.57
2017-02-17T23:18:38.920Z,964.5
2017-02-17T23:20:46.160Z,964.5
2017-02-17T23:22:53.574Z,964.49
2017-02-17T23:24:55.776Z,964.51
2017-02-17T23:26:58.291Z,964.51
2017-02-17T23:29:00.875Z,964.5
2017-02-17T23:31:03.387Z,964.46
2017-02-17T23:33:10.763Z,964.46
2017-02-17T23:34:58.113Z,964.5
2017-02-17T23:37:00.473Z,964.4
2017-02-17T23:39:02.829Z,964.42
2017-02-17T23:41:15.048Z,964.4
2017-02-17T23:43:12.303Z,964.38
2017-02-17T23:45:14.701Z,964.4
2017-02-17T23:47:07.121Z,964.43
2017-02-17T23:49:04.525Z,964.41
2017-02-17T23:51:07.009Z,964.43
2017-02-17T23:53:09.346Z,964.42
2017-02-17T23:55:01.824Z,964.41
2017-02-17T23:57:09.069Z,964.43
2017-02-17T23:59:16.469Z,964.39
